sensor_id;sensor_type;location;lat;lon;timestamp;P1;durP1;ratioP1;P2;durP2;ratioP2
29720;SDS011;23665;51.044;3.748;2022-09-03T00:05:18;10.50;;;6.83;;
29720;SDS011;23665;51.044;3.748;2022-09-03T00:08:01;10.43;;;6.73;;
29720;SDS011;23665;51.044;3.748;2022-09-03T00:11:54;10.50;;;7.60;;
29720;SDS011;23665;51.044;3.748;2022-09-03T00:14:16;9.70;;;6.50;;
29720;SDS011;23665;51.044;3.748;2022-09-03T00:16:48;8.27;;;6.80;;
29720;SDS011;23665;51.044;3.748;2022-09-03T00:19:25;8.87;;;6.30;;
29720;SDS011;23665;51.044;3.748;2022-09-03T00:22:16;10.30;;;7.40;;
29720;SDS011;23665;51.044;3.748;2022-09-03T00:24:51;11.03;;;7.67;;
29720;SDS011;23665;51.044;3.748;2022-09-03T00:27:19;9.43;;;7.03;;
29720;SDS011;23665;51.044;3.748;2022-09-03T00:29:51;9.87;;;7.23;;
29720;SDS011;23665;51.044;3.748;2022-09-03T00:32:26;9.80;;;6.57;;
29720;SDS011;23665;51.044;3.748;2022-09-03T00:38:18;11.37;;;7.77;;
29720;SDS011;23665;51.044;3.748;2022-09-03T00:40:59;13.90;;;7.40;;
29720;SDS011;23665;51.044;3.748;2022-09-03T00:49:23;10.10;;;6.90;;
29720;SDS011;23665;51.044;3.748;2022-09-03T00:57:41;12.20;;;7.27;;
29720;SDS011;23665;51.044;3.748;2022-09-03T01:00:16;11.17;;;6.53;;
29720;SDS011;23665;51.044;3.748;2022-09-03T01:02:50;11.30;;;7.13;;
29720;SDS011;23665;51.044;3.748;2022-09-03T01:05:42;10.90;;;7.13;;
29720;SDS011;23665;51.044;3.748;2022-09-03T01:16:34;11.00;;;7.43;;
29720;SDS011;23665;51.044;3.748;2022-09-03T01:30:26;12.37;;;7.30;;
29720;SDS011;23665;51.044;3.748;2022-09-03T01:33:06;9.40;;;7.47;;
29720;SDS011;23665;51.044;3.748;2022-09-03T01:36:03;14.60;;;7.70;;
29720;SDS011;23665;51.044;3.748;2022-09-03T01:39:10;9.33;;;7.07;;
29720;SDS011;23665;51.044;3.748;2022-09-03T01:52:50;12.17;;;7.47;;
29720;SDS011;23665;51.044;3.748;2022-09-03T01:55:28;8.10;;;5.70;;
29720;SDS011;23665;51.044;3.748;2022-09-03T01:57:57;10.83;;;8.17;;
29720;SDS011;23665;51.044;3.748;2022-09-03T02:00:30;6.80;;;5.30;;
29720;SDS011;23665;51.044;3.748;2022-09-03T02:02:59;10.40;;;6.70;;
29720;SDS011;23665;51.044;3.748;2022-09-03T02:05:31;8.00;;;5.80;;
29720;SDS011;23665;51.044;3.748;2022-09-03T02:10:27;8.77;;;6.13;;
29720;SDS011;23665;51.044;3.748;2022-09-03T02:13:06;11.37;;;7.00;;
29720;SDS011;23665;51.044;3.748;2022-09-03T02:15:55;8.80;;;6.57;;
29720;SDS011;23665;51.044;3.748;2022-09-03T02:18:35;9.27;;;5.73;;
29720;SDS011;23665;51.044;3.748;2022-09-03T02:21:05;7.93;;;6.10;;
29720;SDS011;23665;51.044;3.748;2022-09-03T02:23:31;12.37;;;7.83;;
29720;SDS011;23665;51.044;3.748;2022-09-03T02:25:58;11.83;;;7.97;;
29720;SDS011;23665;51.044;3.748;2022-09-03T02:28:29;10.73;;;6.33;;
29720;SDS011;23665;51.044;3.748;2022-09-03T02:30:56;9.33;;;7.13;;
29720;SDS011;23665;51.044;3.748;2022-09-03T02:33:22;12.60;;;7.97;;
29720;SDS011;23665;51.044;3.748;2022-09-03T02:35:49;9.77;;;7.80;;
29720;SDS011;23665;51.044;3.748;2022-09-03T02:38:16;13.47;;;8.27;;
29720;SDS011;23665;51.044;3.748;2022-09-03T02:40:49;11.10;;;7.27;;
29720;SDS011;23665;51.044;3.748;2022-09-03T02:43:26;8.37;;;5.83;;
29720;SDS011;23665;51.044;3.748;2022-09-03T02:46:00;8.50;;;6.70;;
29720;SDS011;23665;51.044;3.748;2022-09-03T02:48:27;9.03;;;6.50;;
29720;SDS011;23665;51.044;3.748;2022-09-03T02:50:53;10.40;;;7.00;;
29720;SDS011;23665;51.044;3.748;2022-09-03T02:53:19;6.93;;;4.97;;
29720;SDS011;23665;51.044;3.748;2022-09-03T02:55:45;11.73;;;5.93;;
29720;SDS011;23665;51.044;3.748;2022-09-03T02:58:11;9.60;;;6.10;;
29720;SDS011;23665;51.044;3.748;2022-09-03T03:00:37;9.07;;;7.57;;
29720;SDS011;23665;51.044;3.748;2022-09-03T03:03:04;11.33;;;6.37;;
29720;SDS011;23665;51.044;3.748;2022-09-03T03:05:44;9.80;;;6.33;;
29720;SDS011;23665;51.044;3.748;2022-09-03T03:08:11;10.23;;;6.67;;
29720;SDS011;23665;51.044;3.748;2022-09-03T03:10:40;8.40;;;5.73;;
29720;SDS011;23665;51.044;3.748;2022-09-03T03:13:07;8.43;;;4.97;;
29720;SDS011;23665;51.044;3.748;2022-09-03T03:15:32;10.20;;;6.67;;
29720;SDS011;23665;51.044;3.748;2022-09-03T03:17:58;8.23;;;5.13;;
29720;SDS011;23665;51.044;3.748;2022-09-03T03:20:24;8.57;;;5.90;;
29720;SDS011;23665;51.044;3.748;2022-09-03T03:22:49;8.27;;;5.77;;
29720;SDS011;23665;51.044;3.748;2022-09-03T03:25:15;8.90;;;6.57;;
29720;SDS011;23665;51.044;3.748;2022-09-03T03:27:41;8.83;;;6.43;;
29720;SDS011;23665;51.044;3.748;2022-09-03T03:30:08;11.80;;;7.13;;
29720;SDS011;23665;51.044;3.748;2022-09-03T03:32:35;8.13;;;4.80;;
29720;SDS011;23665;51.044;3.748;2022-09-03T03:35:01;11.60;;;5.10;;
29720;SDS011;23665;51.044;3.748;2022-09-03T03:37:27;11.37;;;7.53;;
29720;SDS011;23665;51.044;3.748;2022-09-03T03:39:53;8.50;;;5.07;;
29720;SDS011;23665;51.044;3.748;2022-09-03T03:42:18;7.37;;;5.03;;
29720;SDS011;23665;51.044;3.748;2022-09-03T03:44:44;7.60;;;4.80;;
29720;SDS011;23665;51.044;3.748;2022-09-03T03:47:10;7.83;;;5.40;;
29720;SDS011;23665;51.044;3.748;2022-09-03T03:49:36;9.07;;;6.47;;
29720;SDS011;23665;51.044;3.748;2022-09-03T03:52:02;9.30;;;4.70;;
29720;SDS011;23665;51.044;3.748;2022-09-03T03:54:28;9.33;;;4.97;;
29720;SDS011;23665;51.044;3.748;2022-09-03T03:56:54;7.70;;;4.97;;
29720;SDS011;23665;51.044;3.748;2022-09-03T03:59:20;9.70;;;5.67;;
29720;SDS011;23665;51.044;3.748;2022-09-03T04:01:46;10.50;;;5.77;;
29720;SDS011;23665;51.044;3.748;2022-09-03T04:04:14;7.53;;;4.97;;
29720;SDS011;23665;51.044;3.748;2022-09-03T04:06:40;9.20;;;5.20;;
29720;SDS011;23665;51.044;3.748;2022-09-03T04:09:06;7.57;;;5.40;;
29720;SDS011;23665;51.044;3.748;2022-09-03T04:11:32;9.83;;;6.20;;
29720;SDS011;23665;51.044;3.748;2022-09-03T04:13:57;11.73;;;6.93;;
29720;SDS011;23665;51.044;3.748;2022-09-03T04:16:24;13.50;;;8.10;;
29720;SDS011;23665;51.044;3.748;2022-09-03T04:18:51;15.80;;;7.37;;
29720;SDS011;23665;51.044;3.748;2022-09-03T04:21:19;7.53;;;6.73;;
29720;SDS011;23665;51.044;3.748;2022-09-03T04:23:46;9.20;;;5.17;;
29720;SDS011;23665;51.044;3.748;2022-09-03T04:26:15;7.90;;;5.07;;
29720;SDS011;23665;51.044;3.748;2022-09-03T04:28:43;9.07;;;4.73;;
29720;SDS011;23665;51.044;3.748;2022-09-03T04:31:10;9.07;;;4.63;;
29720;SDS011;23665;51.044;3.748;2022-09-03T04:33:37;11.23;;;5.20;;
29720;SDS011;23665;51.044;3.748;2022-09-03T04:38:57;7.77;;;5.47;;
29720;SDS011;23665;51.044;3.748;2022-09-03T04:41:26;12.83;;;7.30;;
29720;SDS011;23665;51.044;3.748;2022-09-03T04:43:53;8.47;;;5.10;;
29720;SDS011;23665;51.044;3.748;2022-09-03T04:46:21;8.10;;;5.50;;
29720;SDS011;23665;51.044;3.748;2022-09-03T04:48:50;11.23;;;6.80;;
29720;SDS011;23665;51.044;3.748;2022-09-03T04:51:19;7.27;;;5.83;;
29720;SDS011;23665;51.044;3.748;2022-09-03T04:53:51;7.47;;;5.37;;
29720;SDS011;23665;51.044;3.748;2022-09-03T04:56:22;8.43;;;5.90;;
29720;SDS011;23665;51.044;3.748;2022-09-03T04:58:53;8.63;;;5.17;;
29720;SDS011;23665;51.044;3.748;2022-09-03T05:01:28;8.83;;;5.57;;
29720;SDS011;23665;51.044;3.748;2022-09-03T05:03:55;8.70;;;5.50;;
29720;SDS011;23665;51.044;3.748;2022-09-03T05:06:22;7.03;;;5.90;;
29720;SDS011;23665;51.044;3.748;2022-09-03T05:08:49;8.93;;;6.00;;
29720;SDS011;23665;51.044;3.748;2022-09-03T05:11:17;8.03;;;6.07;;
29720;SDS011;23665;51.044;3.748;2022-09-03T05:13:46;8.13;;;5.77;;
29720;SDS011;23665;51.044;3.748;2022-09-03T05:16:15;10.83;;;6.47;;
29720;SDS011;23665;51.044;3.748;2022-09-03T05:18:42;8.57;;;6.73;;
29720;SDS011;23665;51.044;3.748;2022-09-03T05:21:09;9.70;;;6.17;;
29720;SDS011;23665;51.044;3.748;2022-09-03T05:23:37;7.67;;;6.17;;
29720;SDS011;23665;51.044;3.748;2022-09-03T05:26:06;7.60;;;5.47;;
29720;SDS011;23665;51.044;3.748;2022-09-03T05:28:35;8.87;;;6.40;;
29720;SDS011;23665;51.044;3.748;2022-09-03T05:31:03;8.00;;;5.90;;
29720;SDS011;23665;51.044;3.748;2022-09-03T05:33:33;10.70;;;7.77;;
29720;SDS011;23665;51.044;3.748;2022-09-03T05:36:01;10.07;;;5.27;;
29720;SDS011;23665;51.044;3.748;2022-09-03T05:38:31;10.13;;;6.80;;
29720;SDS011;23665;51.044;3.748;2022-09-03T05:41:00;8.80;;;6.77;;
29720;SDS011;23665;51.044;3.748;2022-09-03T05:43:28;10.10;;;6.03;;
29720;SDS011;23665;51.044;3.748;2022-09-03T05:46:13;9.40;;;6.43;;
29720;SDS011;23665;51.044;3.748;2022-09-03T05:48:42;8.63;;;5.90;;
29720;SDS011;23665;51.044;3.748;2022-09-03T05:51:09;16.10;;;5.97;;
29720;SDS011;23665;51.044;3.748;2022-09-03T05:53:40;9.80;;;6.53;;
29720;SDS011;23665;51.044;3.748;2022-09-03T05:56:11;12.20;;;7.00;;
29720;SDS011;23665;51.044;3.748;2022-09-03T05:58:41;11.43;;;6.97;;
29720;SDS011;23665;51.044;3.748;2022-09-03T06:01:28;13.17;;;7.97;;
29720;SDS011;23665;51.044;3.748;2022-09-03T06:04:16;9.50;;;7.60;;
29720;SDS011;23665;51.044;3.748;2022-09-03T06:06:42;10.87;;;7.60;;
29720;SDS011;23665;51.044;3.748;2022-09-03T06:09:13;13.13;;;6.87;;
29720;SDS011;23665;51.044;3.748;2022-09-03T06:11:43;8.67;;;6.50;;
29720;SDS011;23665;51.044;3.748;2022-09-03T06:14:11;11.30;;;7.43;;
29720;SDS011;23665;51.044;3.748;2022-09-03T06:16:38;9.37;;;6.10;;
29720;SDS011;23665;51.044;3.748;2022-09-03T06:19:06;8.07;;;6.23;;
29720;SDS011;23665;51.044;3.748;2022-09-03T06:21:39;9.97;;;7.93;;
29720;SDS011;23665;51.044;3.748;2022-09-03T06:24:07;11.37;;;6.90;;
29720;SDS011;23665;51.044;3.748;2022-09-03T06:26:35;10.20;;;6.13;;
29720;SDS011;23665;51.044;3.748;2022-09-03T06:29:01;10.50;;;6.00;;
29720;SDS011;23665;51.044;3.748;2022-09-03T06:31:27;9.90;;;6.53;;
29720;SDS011;23665;51.044;3.748;2022-09-03T06:33:53;10.40;;;6.90;;
29720;SDS011;23665;51.044;3.748;2022-09-03T06:36:20;11.73;;;6.97;;
29720;SDS011;23665;51.044;3.748;2022-09-03T06:38:49;9.13;;;6.33;;
29720;SDS011;23665;51.044;3.748;2022-09-03T06:41:17;8.30;;;6.33;;
29720;SDS011;23665;51.044;3.748;2022-09-03T06:43:45;8.67;;;6.40;;
29720;SDS011;23665;51.044;3.748;2022-09-03T06:46:17;10.40;;;7.80;;
29720;SDS011;23665;51.044;3.748;2022-09-03T06:48:45;11.23;;;6.73;;
29720;SDS011;23665;51.044;3.748;2022-09-03T06:51:15;9.90;;;6.87;;
29720;SDS011;23665;51.044;3.748;2022-09-03T06:53:46;11.80;;;7.70;;
29720;SDS011;23665;51.044;3.748;2022-09-03T06:56:15;13.03;;;7.83;;
29720;SDS011;23665;51.044;3.748;2022-09-03T06:58:51;17.37;;;8.57;;
29720;SDS011;23665;51.044;3.748;2022-09-03T07:01:19;12.50;;;7.43;;
29720;SDS011;23665;51.044;3.748;2022-09-03T07:03:56;10.37;;;7.43;;
29720;SDS011;23665;51.044;3.748;2022-09-03T07:06:25;11.07;;;7.70;;
29720;SDS011;23665;51.044;3.748;2022-09-03T07:09:01;10.43;;;6.47;;
29720;SDS011;23665;51.044;3.748;2022-09-03T07:11:28;10.83;;;7.03;;
29720;SDS011;23665;51.044;3.748;2022-09-03T07:13:55;12.33;;;7.67;;
29720;SDS011;23665;51.044;3.748;2022-09-03T07:18:49;14.50;;;8.80;;
29720;SDS011;23665;51.044;3.748;2022-09-03T07:21:16;12.90;;;8.50;;
29720;SDS011;23665;51.044;3.748;2022-09-03T07:23:46;15.30;;;8.87;;
29720;SDS011;23665;51.044;3.748;2022-09-03T07:26:15;11.23;;;8.97;;
29720;SDS011;23665;51.044;3.748;2022-09-03T07:28:44;15.23;;;9.77;;
29720;SDS011;23665;51.044;3.748;2022-09-03T07:31:12;14.77;;;9.07;;
29720;SDS011;23665;51.044;3.748;2022-09-03T07:33:38;12.60;;;7.27;;
29720;SDS011;23665;51.044;3.748;2022-09-03T07:36:11;10.83;;;8.03;;
29720;SDS011;23665;51.044;3.748;2022-09-03T07:38:41;12.43;;;8.10;;
29720;SDS011;23665;51.044;3.748;2022-09-03T07:41:11;13.97;;;8.77;;
29720;SDS011;23665;51.044;3.748;2022-09-03T07:43:39;15.20;;;8.13;;
29720;SDS011;23665;51.044;3.748;2022-09-03T07:46:16;12.07;;;8.37;;
29720;SDS011;23665;51.044;3.748;2022-09-03T07:48:47;12.50;;;8.87;;
29720;SDS011;23665;51.044;3.748;2022-09-03T07:51:24;12.20;;;8.83;;
29720;SDS011;23665;51.044;3.748;2022-09-03T07:53:59;13.97;;;8.80;;
29720;SDS011;23665;51.044;3.748;2022-09-03T07:56:28;13.83;;;8.83;;
29720;SDS011;23665;51.044;3.748;2022-09-03T07:58:59;15.07;;;8.77;;
29720;SDS011;23665;51.044;3.748;2022-09-03T08:01:25;12.90;;;7.37;;
29720;SDS011;23665;51.044;3.748;2022-09-03T08:03:52;16.70;;;8.43;;
29720;SDS011;23665;51.044;3.748;2022-09-03T08:06:20;10.23;;;7.43;;
29720;SDS011;23665;51.044;3.748;2022-09-03T08:08:48;10.60;;;7.57;;
29720;SDS011;23665;51.044;3.748;2022-09-03T08:11:14;11.30;;;7.00;;
29720;SDS011;23665;51.044;3.748;2022-09-03T08:13:45;13.23;;;7.50;;
29720;SDS011;23665;51.044;3.748;2022-09-03T08:16:14;8.77;;;6.97;;
29720;SDS011;23665;51.044;3.748;2022-09-03T08:18:42;10.37;;;6.80;;
29720;SDS011;23665;51.044;3.748;2022-09-03T08:21:09;14.30;;;6.60;;
29720;SDS011;23665;51.044;3.748;2022-09-03T08:23:43;9.20;;;5.50;;
29720;SDS011;23665;51.044;3.748;2022-09-03T08:26:10;9.43;;;5.27;;
29720;SDS011;23665;51.044;3.748;2022-09-03T08:28:37;10.97;;;5.87;;
29720;SDS011;23665;51.044;3.748;2022-09-03T08:31:15;23.33;;;7.10;;
29720;SDS011;23665;51.044;3.748;2022-09-03T08:33:43;8.83;;;5.70;;
29720;SDS011;23665;51.044;3.748;2022-09-03T08:36:14;14.13;;;7.70;;
29720;SDS011;23665;51.044;3.748;2022-09-03T08:38:43;8.73;;;5.67;;
29720;SDS011;23665;51.044;3.748;2022-09-03T08:44:16;12.13;;;6.43;;
29720;SDS011;23665;51.044;3.748;2022-09-03T08:52:41;9.80;;;5.33;;
29720;SDS011;23665;51.044;3.748;2022-09-03T08:55:33;12.23;;;6.37;;
29720;SDS011;23665;51.044;3.748;2022-09-03T08:58:21;7.10;;;5.30;;
29720;SDS011;23665;51.044;3.748;2022-09-03T09:00:56;10.10;;;5.37;;
29720;SDS011;23665;51.044;3.748;2022-09-03T09:08:34;6.27;;;4.23;;
29720;SDS011;23665;51.044;3.748;2022-09-03T09:11:17;7.50;;;5.37;;
29720;SDS011;23665;51.044;3.748;2022-09-03T09:14:00;9.63;;;5.43;;
29720;SDS011;23665;51.044;3.748;2022-09-03T09:19:12;7.03;;;4.73;;
29720;SDS011;23665;51.044;3.748;2022-09-03T09:21:41;7.23;;;4.67;;
29720;SDS011;23665;51.044;3.748;2022-09-03T09:24:18;8.20;;;4.47;;
29720;SDS011;23665;51.044;3.748;2022-09-03T09:26:48;6.83;;;3.90;;
29720;SDS011;23665;51.044;3.748;2022-09-03T09:29:22;10.87;;;4.97;;
29720;SDS011;23665;51.044;3.748;2022-09-03T09:31:53;9.00;;;4.57;;
29720;SDS011;23665;51.044;3.748;2022-09-03T09:34:18;6.57;;;5.00;;
29720;SDS011;23665;51.044;3.748;2022-09-03T09:36:46;8.20;;;4.80;;
29720;SDS011;23665;51.044;3.748;2022-09-03T09:39:14;6.70;;;4.47;;
29720;SDS011;23665;51.044;3.748;2022-09-03T09:41:40;8.23;;;6.37;;
29720;SDS011;23665;51.044;3.748;2022-09-03T09:44:16;9.77;;;5.23;;
29720;SDS011;23665;51.044;3.748;2022-09-03T09:46:44;9.00;;;7.10;;
29720;SDS011;23665;51.044;3.748;2022-09-03T09:49:24;8.47;;;5.53;;
29720;SDS011;23665;51.044;3.748;2022-09-03T09:52:00;10.30;;;5.63;;
29720;SDS011;23665;51.044;3.748;2022-09-03T09:54:38;8.83;;;4.73;;
29720;SDS011;23665;51.044;3.748;2022-09-03T09:57:07;9.00;;;5.93;;
29720;SDS011;23665;51.044;3.748;2022-09-03T09:59:41;8.37;;;4.67;;
29720;SDS011;23665;51.044;3.748;2022-09-03T10:04:36;6.67;;;4.47;;
29720;SDS011;23665;51.044;3.748;2022-09-03T10:09:58;6.67;;;4.30;;
29720;SDS011;23665;51.044;3.748;2022-09-03T10:12:27;9.80;;;4.87;;
29720;SDS011;23665;51.044;3.748;2022-09-03T10:15:24;7.03;;;4.63;;
29720;SDS011;23665;51.044;3.748;2022-09-03T10:18:23;6.70;;;5.03;;
29720;SDS011;23665;51.044;3.748;2022-09-03T10:21:14;9.53;;;5.77;;
29720;SDS011;23665;51.044;3.748;2022-09-03T10:26:40;17.37;;;5.63;;
29720;SDS011;23665;51.044;3.748;2022-09-03T10:29:09;8.50;;;4.23;;
29720;SDS011;23665;51.044;3.748;2022-09-03T10:34:36;8.53;;;3.83;;
29720;SDS011;23665;51.044;3.748;2022-09-03T10:50:27;7.37;;;3.77;;
29720;SDS011;23665;51.044;3.748;2022-09-03T10:56:20;7.77;;;4.40;;
29720;SDS011;23665;51.044;3.748;2022-09-03T10:58:51;6.40;;;3.17;;
29720;SDS011;23665;51.044;3.748;2022-09-03T11:07:42;5.37;;;3.83;;
29720;SDS011;23665;51.044;3.748;2022-09-03T11:10:16;7.33;;;3.93;;
29720;SDS011;23665;51.044;3.748;2022-09-03T11:12:44;5.73;;;3.00;;
29720;SDS011;23665;51.044;3.748;2022-09-03T11:15:20;12.27;;;5.00;;
29720;SDS011;23665;51.044;3.748;2022-09-03T11:17:56;6.13;;;3.87;;
29720;SDS011;23665;51.044;3.748;2022-09-03T11:20:43;6.53;;;4.43;;
29720;SDS011;23665;51.044;3.748;2022-09-03T11:23:11;7.80;;;4.90;;
29720;SDS011;23665;51.044;3.748;2022-09-03T11:25:42;6.83;;;4.60;;
29720;SDS011;23665;51.044;3.748;2022-09-03T11:28:21;6.77;;;3.57;;
29720;SDS011;23665;51.044;3.748;2022-09-03T11:34:45;6.63;;;3.57;;
29720;SDS011;23665;51.044;3.748;2022-09-03T11:36:50;5.50;;;3.23;;
29720;SDS011;23665;51.044;3.748;2022-09-03T11:39:20;8.47;;;4.50;;
29720;SDS011;23665;51.044;3.748;2022-09-03T11:42:11;5.50;;;4.47;;
29720;SDS011;23665;51.044;3.748;2022-09-03T11:44:49;5.43;;;3.50;;
29720;SDS011;23665;51.044;3.748;2022-09-03T11:49:47;6.03;;;4.20;;
29720;SDS011;23665;51.044;3.748;2022-09-03T11:52:24;6.57;;;4.87;;
29720;SDS011;23665;51.044;3.748;2022-09-03T11:54:55;11.07;;;5.43;;
29720;SDS011;23665;51.044;3.748;2022-09-03T11:57:28;8.13;;;3.63;;
29720;SDS011;23665;51.044;3.748;2022-09-03T12:00:10;6.17;;;3.50;;
29720;SDS011;23665;51.044;3.748;2022-09-03T12:02:46;8.57;;;3.67;;
29720;SDS011;23665;51.044;3.748;2022-09-03T12:08:18;7.07;;;3.77;;
29720;SDS011;23665;51.044;3.748;2022-09-03T12:13:32;5.57;;;3.30;;
29720;SDS011;23665;51.044;3.748;2022-09-03T12:22:22;5.03;;;3.57;;
29720;SDS011;23665;51.044;3.748;2022-09-03T12:24:52;8.00;;;3.57;;
29720;SDS011;23665;51.044;3.748;2022-09-03T12:27:21;8.77;;;4.60;;
29720;SDS011;23665;51.044;3.748;2022-09-03T12:32:27;8.30;;;4.83;;
29720;SDS011;23665;51.044;3.748;2022-09-03T12:35:09;5.23;;;3.70;;
29720;SDS011;23665;51.044;3.748;2022-09-03T12:37:46;6.40;;;4.20;;
29720;SDS011;23665;51.044;3.748;2022-09-03T12:40:15;5.63;;;3.20;;
29720;SDS011;23665;51.044;3.748;2022-09-03T12:42:46;5.27;;;3.87;;
29720;SDS011;23665;51.044;3.748;2022-09-03T12:45:12;7.37;;;4.40;;
29720;SDS011;23665;51.044;3.748;2022-09-03T12:47:40;5.77;;;2.67;;
29720;SDS011;23665;51.044;3.748;2022-09-03T12:50:12;8.20;;;4.37;;
29720;SDS011;23665;51.044;3.748;2022-09-03T12:52:44;6.83;;;3.73;;
29720;SDS011;23665;51.044;3.748;2022-09-03T13:00:37;5.30;;;3.70;;
29720;SDS011;23665;51.044;3.748;2022-09-03T13:03:07;5.90;;;4.60;;
29720;SDS011;23665;51.044;3.748;2022-09-03T13:08:18;8.87;;;4.10;;
29720;SDS011;23665;51.044;3.748;2022-09-03T13:10:50;7.33;;;4.80;;
29720;SDS011;23665;51.044;3.748;2022-09-03T13:29:54;6.43;;;3.53;;
29720;SDS011;23665;51.044;3.748;2022-09-03T13:40:34;4.30;;;3.17;;
29720;SDS011;23665;51.044;3.748;2022-09-03T13:46:02;4.80;;;3.00;;
29720;SDS011;23665;51.044;3.748;2022-09-03T13:48:42;4.90;;;2.70;;
29720;SDS011;23665;51.044;3.748;2022-09-03T13:51:29;4.37;;;2.13;;
29720;SDS011;23665;51.044;3.748;2022-09-03T13:54:30;3.73;;;2.40;;
29720;SDS011;23665;51.044;3.748;2022-09-03T13:57:03;5.97;;;3.37;;
29720;SDS011;23665;51.044;3.748;2022-09-03T14:07:37;5.83;;;3.10;;
29720;SDS011;23665;51.044;3.748;2022-09-03T14:15:59;3.83;;;2.63;;
29720;SDS011;23665;51.044;3.748;2022-09-03T14:18:37;6.20;;;2.80;;
29720;SDS011;23665;51.044;3.748;2022-09-03T14:21:14;3.40;;;1.90;;
29720;SDS011;23665;51.044;3.748;2022-09-03T14:26:28;5.07;;;2.30;;
29720;SDS011;23665;51.044;3.748;2022-09-03T14:29:19;3.77;;;2.37;;
29720;SDS011;23665;51.044;3.748;2022-09-03T14:34:48;6.37;;;2.93;;
29720;SDS011;23665;51.044;3.748;2022-09-03T14:37:42;6.30;;;2.63;;
29720;SDS011;23665;51.044;3.748;2022-09-03T14:40:15;14.57;;;4.10;;
29720;SDS011;23665;51.044;3.748;2022-09-03T14:43:09;19.57;;;5.80;;
29720;SDS011;23665;51.044;3.748;2022-09-03T14:46:13;17.60;;;3.90;;
29720;SDS011;23665;51.044;3.748;2022-09-03T14:56:48;9.57;;;3.17;;
29720;SDS011;23665;51.044;3.748;2022-09-03T15:07:42;10.07;;;2.50;;
29720;SDS011;23665;51.044;3.748;2022-09-03T15:13:20;2.30;;;1.70;;
29720;SDS011;23665;51.044;3.748;2022-09-03T15:23:59;3.10;;;1.70;;
29720;SDS011;23665;51.044;3.748;2022-09-03T15:32:42;3.57;;;1.67;;
29720;SDS011;23665;51.044;3.748;2022-09-03T15:40:50;4.43;;;2.00;;
29720;SDS011;23665;51.044;3.748;2022-09-03T15:43:30;3.17;;;1.70;;
29720;SDS011;23665;51.044;3.748;2022-09-03T15:45:58;3.07;;;1.60;;
29720;SDS011;23665;51.044;3.748;2022-09-03T15:51:41;3.40;;;2.00;;
29720;SDS011;23665;51.044;3.748;2022-09-03T15:54:41;4.13;;;1.80;;
29720;SDS011;23665;51.044;3.748;2022-09-03T15:57:36;4.47;;;1.80;;
29720;SDS011;23665;51.044;3.748;2022-09-03T16:00:38;4.97;;;1.67;;
29720;SDS011;23665;51.044;3.748;2022-09-03T16:03:05;3.50;;;2.30;;
29720;SDS011;23665;51.044;3.748;2022-09-03T16:05:39;2.67;;;1.50;;
29720;SDS011;23665;51.044;3.748;2022-09-03T16:16:23;3.87;;;1.77;;
29720;SDS011;23665;51.044;3.748;2022-09-03T16:24:31;4.93;;;2.00;;
29720;SDS011;23665;51.044;3.748;2022-09-03T16:30:00;7.53;;;3.10;;
29720;SDS011;23665;51.044;3.748;2022-09-03T16:38:49;9.07;;;6.17;;
29720;SDS011;23665;51.044;3.748;2022-09-03T16:44:40;12.60;;;7.07;;
29720;SDS011;23665;51.044;3.748;2022-09-03T16:55:52;7.00;;;2.73;;
29720;SDS011;23665;51.044;3.748;2022-09-03T17:09:22;7.47;;;4.30;;
29720;SDS011;23665;51.044;3.748;2022-09-03T17:24:52;3.80;;;2.53;;
29720;SDS011;23665;51.044;3.748;2022-09-03T17:30:08;4.00;;;2.50;;
29720;SDS011;23665;51.044;3.748;2022-09-03T17:32:50;4.53;;;2.67;;
29720;SDS011;23665;51.044;3.748;2022-09-03T17:36:01;5.17;;;2.43;;
29720;SDS011;23665;51.044;3.748;2022-09-03T17:38:42;4.13;;;2.27;;
29720;SDS011;23665;51.044;3.748;2022-09-03T17:41:49;5.43;;;2.40;;
29720;SDS011;23665;51.044;3.748;2022-09-03T17:52:46;4.07;;;2.10;;
29720;SDS011;23665;51.044;3.748;2022-09-03T17:58:47;6.27;;;2.50;;
29720;SDS011;23665;51.044;3.748;2022-09-03T18:01:03;5.13;;;2.27;;
29720;SDS011;23665;51.044;3.748;2022-09-03T18:04:26;2.87;;;1.80;;
29720;SDS011;23665;51.044;3.748;2022-09-03T18:18:35;5.03;;;2.40;;
29720;SDS011;23665;51.044;3.748;2022-09-03T18:21:11;9.80;;;2.67;;
29720;SDS011;23665;51.044;3.748;2022-09-03T18:27:03;3.17;;;1.83;;
29720;SDS011;23665;51.044;3.748;2022-09-03T18:32:38;4.00;;;2.20;;
29720;SDS011;23665;51.044;3.748;2022-09-03T18:35:23;4.77;;;2.50;;
29720;SDS011;23665;51.044;3.748;2022-09-03T18:38:12;4.07;;;1.80;;
29720;SDS011;23665;51.044;3.748;2022-09-03T18:41:05;3.67;;;2.00;;
29720;SDS011;23665;51.044;3.748;2022-09-03T18:47:28;5.83;;;2.73;;
29720;SDS011;23665;51.044;3.748;2022-09-03T18:50:21;3.10;;;1.83;;
29720;SDS011;23665;51.044;3.748;2022-09-03T18:53:13;4.03;;;1.90;;
29720;SDS011;23665;51.044;3.748;2022-09-03T18:56:17;5.40;;;2.60;;
29720;SDS011;23665;51.044;3.748;2022-09-03T19:01:47;6.43;;;2.63;;
29720;SDS011;23665;51.044;3.748;2022-09-03T19:13:46;6.10;;;3.90;;
29720;SDS011;23665;51.044;3.748;2022-09-03T19:19:28;6.33;;;3.47;;
29720;SDS011;23665;51.044;3.748;2022-09-03T19:22:37;5.53;;;3.70;;
29720;SDS011;23665;51.044;3.748;2022-09-03T19:25:22;7.83;;;4.20;;
29720;SDS011;23665;51.044;3.748;2022-09-03T19:28:21;8.63;;;4.37;;
29720;SDS011;23665;51.044;3.748;2022-09-03T19:46:52;12.57;;;4.43;;
29720;SDS011;23665;51.044;3.748;2022-09-03T19:49:47;6.27;;;3.87;;
29720;SDS011;23665;51.044;3.748;2022-09-03T19:55:38;6.90;;;4.07;;
29720;SDS011;23665;51.044;3.748;2022-09-03T19:58:27;8.10;;;5.00;;
29720;SDS011;23665;51.044;3.748;2022-09-03T20:01:13;6.37;;;3.70;;
29720;SDS011;23665;51.044;3.748;2022-09-03T20:04:03;7.20;;;4.37;;
29720;SDS011;23665;51.044;3.748;2022-09-03T20:06:55;7.47;;;4.30;;
29720;SDS011;23665;51.044;3.748;2022-09-03T20:09:41;6.60;;;3.63;;
29720;SDS011;23665;51.044;3.748;2022-09-03T20:12:28;7.03;;;4.83;;
29720;SDS011;23665;51.044;3.748;2022-09-03T20:14:58;6.20;;;4.80;;
29720;SDS011;23665;51.044;3.748;2022-09-03T20:23:40;6.47;;;4.30;;
29720;SDS011;23665;51.044;3.748;2022-09-03T20:26:08;8.73;;;4.37;;
29720;SDS011;23665;51.044;3.748;2022-09-03T20:31:30;8.10;;;5.20;;
29720;SDS011;23665;51.044;3.748;2022-09-03T20:36:46;7.23;;;4.77;;
29720;SDS011;23665;51.044;3.748;2022-09-03T20:39:44;5.60;;;3.67;;
29720;SDS011;23665;51.044;3.748;2022-09-03T20:43:17;5.83;;;4.17;;
29720;SDS011;23665;51.044;3.748;2022-09-03T20:45:17;7.23;;;4.50;;
29720;SDS011;23665;51.044;3.748;2022-09-03T20:48:01;10.20;;;4.37;;
29720;SDS011;23665;51.044;3.748;2022-09-03T20:55:52;7.07;;;4.50;;
29720;SDS011;23665;51.044;3.748;2022-09-03T21:01:15;8.53;;;4.40;;
29720;SDS011;23665;51.044;3.748;2022-09-03T21:03:55;9.13;;;4.43;;
29720;SDS011;23665;51.044;3.748;2022-09-03T21:06:30;5.80;;;4.57;;
29720;SDS011;23665;51.044;3.748;2022-09-03T21:09:11;8.87;;;5.83;;
29720;SDS011;23665;51.044;3.748;2022-09-03T21:14:41;6.73;;;4.57;;
29720;SDS011;23665;51.044;3.748;2022-09-03T21:17:35;9.13;;;5.40;;
29720;SDS011;23665;51.044;3.748;2022-09-03T21:20:41;10.33;;;6.43;;
29720;SDS011;23665;51.044;3.748;2022-09-03T21:23:28;9.73;;;6.90;;
29720;SDS011;23665;51.044;3.748;2022-09-03T21:26:16;10.77;;;7.30;;
29720;SDS011;23665;51.044;3.748;2022-09-03T21:32:17;15.73;;;10.87;;
29720;SDS011;23665;51.044;3.748;2022-09-03T21:35:05;16.30;;;14.23;;
29720;SDS011;23665;51.044;3.748;2022-09-03T21:37:33;19.23;;;13.90;;
29720;SDS011;23665;51.044;3.748;2022-09-03T21:40:00;26.07;;;16.23;;
29720;SDS011;23665;51.044;3.748;2022-09-03T21:42:35;25.47;;;17.57;;
29720;SDS011;23665;51.044;3.748;2022-09-03T21:48:25;25.80;;;18.47;;
29720;SDS011;23665;51.044;3.748;2022-09-03T21:50:55;26.97;;;20.30;;